Coastal Carolina Regional Airport
KEWN : now visible

Airfield :











YOU CAN JOIN US ON...

 
LOGIN :

Register | Disclaimer

   EN    FR    IT 

 









Legend :    VFR   Marginal VFR   IFR   Intensive IFR   Very Intensive IFR
Visi :
Ceiling :
>= 8 km
>= 3000ft
5 to 8 km
1000 to 3000 ft
1500m to 5 km
500 to 1000 ft
800 to 1500m
200 to 500 ft
< 800m
< 200 ft
Symbols :   Thunderstorms  Fog  Heavy snow  Heavy precipitations  Wind > 20 kt







- Airport Elevation : 18 ft
- IATA code : EWN


KEWN - Coastal Carolina Regional

CURRENT METAR :
  • 171254Z 24008KT 10SM CLR 29/26 A3011 RMK AO2 SLP195 T02890261

EXPIRED METARs :
  • 171154Z 21005KT 10SM CLR 27/27 A3010 RMK AO2 SLP192 70002 T02720267 10272 20256 51006
  • 171054Z 21004KT 7SM CLR 26/26 A3010 RMK AO2 SLP191 T02610261

TAF KEWN
Valid from the 17 at 12:00 until the 18 at 12:00 UTC


171134Z 1712/1812 19004KT P6SM FEW200
FM171700 19008G15KT P6SM SCT050
FM180000 20007KT P6SM SCT250
KZDC FIR / North America



MET'MAP, your aeronautical weather chart ! - Copyright ORBIFLY December 2007 - Disclaimer

ORBIFLY MET'MAP TEAM :

Programming & Development : Alexandra Zaïnal
Concept & Development : Baudouin d'Aumeries
Co-Development & Prog : Marc-Olivier Méhu
Technical & hardware support : Manuel Goepfert

Contact : metmap@orbifly.com




SOURCES & CREDITS :

   NOAA       Earth
Advisory